createdAt,value
2018-12-20T00:01:35.270Z,100795.76
2018-12-20T00:04:01.505Z,100794.42
2018-12-20T00:06:27.655Z,100789.97
2018-12-20T00:08:53.785Z,100796.63
2018-12-20T00:11:20.175Z,100798.33
2018-12-20T00:13:46.385Z,100797.73
2018-12-20T00:16:12.544Z,100799.14
2018-12-20T00:18:38.832Z,100806.05
2018-12-20T00:21:04.978Z,100807.40
2018-12-20T00:23:31.137Z,100805.36
2018-12-20T00:25:57.403Z,100809.25
2018-12-20T00:28:23.597Z,100809.73
2018-12-20T00:30:49.934Z,100815.05
2018-12-20T00:33:16.262Z,100824.00
2018-12-20T00:35:42.526Z,100827.84
2018-12-20T00:38:08.770Z,100824.47
2018-12-20T00:40:35.027Z,100826.40
2018-12-20T00:43:01.208Z,100828.31
2018-12-20T00:45:27.482Z,100831.39
2018-12-20T00:47:53.729Z,100828.14
2018-12-20T00:50:20.049Z,100825.69
2018-12-20T00:52:46.252Z,100828.70
2018-12-20T00:55:12.520Z,100830.21
2018-12-20T00:57:38.753Z,100828.46
2018-12-20T01:00:07.833Z,100830.34
2018-12-20T01:02:34.179Z,100834.38
2018-12-20T01:05:00.335Z,100834.84
2018-12-20T01:07:26.502Z,100831.83
2018-12-20T01:09:52.777Z,100829.05
2018-12-20T01:12:19.041Z,100830.13
2018-12-20T01:14:45.705Z,100830.91
2018-12-20T01:17:12.160Z,100835.00
2018-12-20T01:19:38.401Z,100838.02
2018-12-20T01:22:04.608Z,100835.72
2018-12-20T01:24:30.996Z,100831.73
2018-12-20T01:26:57.221Z,100826.58
2018-12-20T01:29:23.426Z,100823.18
2018-12-20T01:31:49.578Z,100828.14
2018-12-20T01:34:16.017Z,100821.73
2018-12-20T01:36:42.201Z,100821.02
2018-12-20T01:39:08.557Z,100822.11
2018-12-20T01:41:34.855Z,100824.12
2018-12-20T01:44:01.240Z,100817.47
2018-12-20T01:46:27.602Z,100813.48
2018-12-20T01:48:53.836Z,100812.48
2018-12-20T01:51:19.992Z,100805.57
2018-12-20T01:53:46.326Z,100802.63
2018-12-20T01:56:12.605Z,100801.95
2018-12-20T01:58:39.014Z,100800.54
2018-12-20T02:01:05.443Z,100808.23
2018-12-20T02:03:31.582Z,100800.72
2018-12-20T02:05:57.718Z,100800.02
2018-12-20T02:08:24.007Z,100803.22
2018-12-20T02:10:50.162Z,100806.52
2018-12-20T02:13:16.335Z,100803.77
2018-12-20T02:15:42.492Z,100806.28
2018-12-20T02:18:08.590Z,100798.90
2018-12-20T02:20:34.764Z,100801.76
2018-12-20T02:23:01.045Z,100806.28
2018-12-20T02:25:27.310Z,100803.66
2018-12-20T02:27:53.603Z,100804.05
2018-12-20T02:30:20.243Z,100801.00
2018-12-20T02:32:46.594Z,100805.98
2018-12-20T02:35:12.779Z,100807.56
2018-12-20T02:37:39.037Z,100803.63
2018-12-20T02:40:05.334Z,100806.45
2018-12-20T02:42:31.543Z,100804.48
2018-12-20T02:44:57.849Z,100807.17
2018-12-20T02:47:26.097Z,100802.50
2018-12-20T02:49:52.198Z,100804.28
2018-12-20T02:52:18.554Z,100800.73
2018-12-20T02:54:44.862Z,100799.22
2018-12-20T02:57:11.150Z,100806.67
2018-12-20T02:59:37.428Z,100801.41
2018-12-20T03:02:03.575Z,100804.06
2018-12-20T03:04:29.791Z,100808.31
2018-12-20T03:06:56.123Z,100811.04
2018-12-20T03:09:22.424Z,100804.66
2018-12-20T03:11:48.567Z,100810.63
2018-12-20T03:14:15.235Z,100811.45
2018-12-20T03:16:41.593Z,100815.60
2018-12-20T03:19:08.033Z,100815.17
2018-12-20T03:21:34.295Z,100809.81
2018-12-20T03:24:00.722Z,100812.09
2018-12-20T03:26:27.050Z,100814.79
2018-12-20T03:28:53.506Z,100817.45
2018-12-20T03:31:19.876Z,100821.22
2018-12-20T03:33:46.101Z,100823.73
2018-12-20T03:36:12.510Z,100825.11
2018-12-20T03:38:38.861Z,100827.64
2018-12-20T03:41:05.220Z,100826.83
2018-12-20T03:43:31.872Z,100828.61
2018-12-20T03:45:58.052Z,100835.39
2018-12-20T03:48:24.320Z,100829.47
2018-12-20T03:50:50.702Z,100840.59
2018-12-20T03:53:17.090Z,100847.23
2018-12-20T03:55:43.297Z,100849.07
2018-12-20T03:58:09.665Z,100842.82
2018-12-20T04:00:35.952Z,100848.47
2018-12-20T04:03:02.441Z,100851.77
2018-12-20T04:05:28.715Z,100841.41
2018-12-20T04:07:54.931Z,100847.88
2018-12-20T04:10:21.101Z,100856.03
2018-12-20T04:12:47.650Z,100858.80
2018-12-20T04:15:13.993Z,100854.55
2018-12-20T04:17:40.439Z,100860.00
2018-12-20T04:20:06.926Z,100859.75
2018-12-20T04:22:33.410Z,100865.65
2018-12-20T04:25:00.078Z,100857.02
2018-12-20T04:27:26.398Z,100859.12
2018-12-20T04:29:52.602Z,100860.77
2018-12-20T04:32:18.719Z,100861.72
2018-12-20T04:34:44.882Z,100851.08
2018-12-20T04:37:11.218Z,100853.77
2018-12-20T04:39:37.435Z,100861.16
2018-12-20T04:42:03.635Z,100853.56
2018-12-20T04:44:29.804Z,100850.84
2018-12-20T04:46:56.056Z,100842.21
2018-12-20T04:49:22.210Z,100842.57
2018-12-20T04:51:48.584Z,100841.74
2018-12-20T04:54:14.936Z,100834.98
2018-12-20T04:56:41.530Z,100835.72
2018-12-20T04:59:08.362Z,100838.50
2018-12-20T05:01:34.802Z,100829.95
2018-12-20T05:04:01.409Z,100836.36
2018-12-20T05:06:27.741Z,100830.11
2018-12-20T05:08:54.069Z,100828.12
2018-12-20T05:11:20.825Z,100828.97
2018-12-20T05:13:47.093Z,100826.85
2018-12-20T05:16:13.236Z,100824.59
2018-12-20T05:18:39.455Z,100822.99
2018-12-20T05:21:05.705Z,100817.85
2018-12-20T05:23:32.002Z,100824.98
2018-12-20T05:25:58.242Z,100821.70
2018-12-20T05:28:24.462Z,100824.34
2018-12-20T05:30:50.667Z,100822.52
2018-12-20T05:33:16.963Z,100820.95
2018-12-20T05:35:43.406Z,100816.52
2018-12-20T05:38:09.738Z,100821.75
2018-12-20T05:40:35.904Z,100822.84
2018-12-20T05:43:02.218Z,100820.61
2018-12-20T05:45:28.704Z,100826.52
2018-12-20T05:47:55.197Z,100830.88
2018-12-20T05:50:21.711Z,100824.54
2018-12-20T05:52:47.901Z,100827.09
2018-12-20T05:55:14.181Z,100830.59
2018-12-20T05:57:40.319Z,100824.98
2018-12-20T06:00:08.140Z,100825.57
2018-12-20T06:02:34.742Z,100815.91
2018-12-20T06:05:00.920Z,100810.53
2018-12-20T06:07:27.197Z,100801.70
2018-12-20T06:09:53.585Z,100802.45
2018-12-20T06:12:19.905Z,100811.92
2018-12-20T06:14:46.173Z,100807.90
2018-12-20T06:17:12.637Z,100811.11
2018-12-20T06:19:39.012Z,100810.03
2018-12-20T06:22:05.184Z,100812.36
2018-12-20T06:24:31.440Z,100807.52
2018-12-20T06:26:57.580Z,100809.39
2018-12-20T06:29:23.699Z,100810.09
2018-12-20T06:31:49.864Z,100810.45
2018-12-20T06:34:15.994Z,100806.20
2018-12-20T06:36:42.148Z,100812.22
2018-12-20T06:39:08.371Z,100816.14
2018-12-20T06:41:34.496Z,100811.27
2018-12-20T06:44:07.139Z,100816.19
2018-12-20T06:46:28.816Z,100806.59
2018-12-20T06:48:54.949Z,100813.27
2018-12-20T06:51:21.072Z,100813.70
2018-12-20T06:53:47.274Z,100816.50
2018-12-20T06:56:13.473Z,100817.39
2018-12-20T06:58:39.642Z,100816.35
2018-12-20T07:01:05.820Z,100818.18
2018-12-20T07:03:31.970Z,100820.36
2018-12-20T07:05:58.151Z,100823.92
2018-12-20T07:08:24.328Z,100819.44
2018-12-20T07:10:50.475Z,100820.11
2018-12-20T07:13:16.611Z,100826.05
2018-12-20T07:15:42.794Z,100826.55
2018-12-20T07:18:08.981Z,100827.95
2018-12-20T07:20:35.107Z,100826.16
2018-12-20T07:23:01.290Z,100824.83
2018-12-20T07:25:27.432Z,100823.84
2018-12-20T07:27:53.558Z,100820.83
2018-12-20T07:30:19.744Z,100819.78
2018-12-20T07:32:45.901Z,100820.30
2018-12-20T07:35:12.030Z,100818.73
2018-12-20T07:37:38.198Z,100820.71
2018-12-20T07:40:07.303Z,100824.97
2018-12-20T07:42:33.457Z,100827.24
2018-12-20T07:44:59.631Z,100837.60
2018-12-20T07:47:26.215Z,100830.11
2018-12-20T07:49:52.327Z,100839.55
2018-12-20T07:52:18.535Z,100830.11
2018-12-20T07:54:44.680Z,100839.30
2018-12-20T07:57:10.817Z,100839.74
2018-12-20T07:59:36.983Z,100836.38
2018-12-20T08:02:03.413Z,100844.41
2018-12-20T08:04:29.545Z,100833.05
2018-12-20T08:06:55.690Z,100839.56
2018-12-20T08:09:21.856Z,100838.02
2018-12-20T08:11:47.987Z,100838.72
2018-12-20T08:14:14.181Z,100840.30
2018-12-20T08:16:45.963Z,100838.72
2018-12-20T08:19:08.475Z,100841.29
2018-12-20T08:21:34.635Z,100838.50
2018-12-20T08:24:00.758Z,100841.75
2018-12-20T08:26:26.893Z,100838.48
2018-12-20T08:28:53.041Z,100833.27
2018-12-20T08:31:19.159Z,100827.32
2018-12-20T08:33:45.301Z,100827.09
2018-12-20T08:36:11.449Z,100833.39
2018-12-20T08:38:37.593Z,100836.30
2018-12-20T08:41:03.726Z,100830.25
2018-12-20T08:43:29.898Z,100833.59
2018-12-20T08:45:56.027Z,100836.91
2018-12-20T08:48:22.132Z,100830.14
2018-12-20T08:50:48.321Z,100826.09
2018-12-20T08:53:14.463Z,100820.98
2018-12-20T08:55:40.622Z,100821.46
2018-12-20T08:58:06.778Z,100815.46
2018-12-20T09:00:32.940Z,100813.59
2018-12-20T09:02:59.036Z,100808.92
2018-12-20T09:05:25.216Z,100807.66
2018-12-20T09:07:51.335Z,100804.63
2018-12-20T09:10:17.492Z,100810.16
2018-12-20T09:12:43.693Z,100808.36
2018-12-20T09:15:09.854Z,100815.75
2018-12-20T09:17:35.992Z,100814.49
2018-12-20T09:20:02.857Z,100812.44
2018-12-20T09:22:29.025Z,100802.13
2018-12-20T09:24:55.161Z,100810.99
2018-12-20T09:27:21.338Z,100801.27
2018-12-20T09:29:47.477Z,100800.80
2018-12-20T09:32:13.613Z,100803.94
2018-12-20T09:34:39.792Z,100797.03
2018-12-20T09:37:05.941Z,100785.24
2018-12-20T09:39:32.138Z,100781.14
2018-12-20T09:41:58.329Z,100783.63
2018-12-20T09:44:24.498Z,100775.14
2018-12-20T09:46:52.698Z,100771.79
2018-12-20T09:49:19.200Z,100772.87
2018-12-20T09:51:45.318Z,100775.00
2018-12-20T09:54:11.466Z,100771.70
2018-12-20T09:56:37.640Z,100766.98
2018-12-20T09:59:03.758Z,100764.08
2018-12-20T10:01:29.955Z,100760.30
2018-12-20T10:03:56.129Z,100747.89
2018-12-20T10:06:22.356Z,100747.42
2018-12-20T10:08:48.571Z,100741.91
2018-12-20T10:11:14.746Z,100745.28
2018-12-20T10:13:40.933Z,100744.05
2018-12-20T10:16:07.092Z,100747.00
2018-12-20T10:18:33.285Z,100758.06
2018-12-20T10:20:59.502Z,100751.66
2018-12-20T10:23:25.654Z,100741.67
2018-12-20T10:25:51.849Z,100728.05
2018-12-20T10:28:18.006Z,100732.02
2018-12-20T10:30:44.181Z,100728.86
2018-12-20T10:33:10.353Z,100723.70
2018-12-20T10:35:36.501Z,100728.81
2018-12-20T10:38:02.653Z,100724.23
2018-12-20T10:40:28.865Z,100726.76
2018-12-20T10:42:55.029Z,100715.44
2018-12-20T10:45:21.196Z,100718.81
2018-12-20T10:47:47.377Z,100709.61
2018-12-20T10:50:13.525Z,100700.16
2018-12-20T10:52:39.783Z,100702.52
2018-12-20T10:55:06.191Z,100702.54
2018-12-20T10:57:32.356Z,100697.44
2018-12-20T10:59:58.508Z,100692.45
2018-12-20T11:02:30.650Z,100697.30
2018-12-20T11:05:01.298Z,100683.23
2018-12-20T11:07:33.681Z,100690.00
2018-12-20T11:10:05.937Z,100698.91
2018-12-20T11:12:38.067Z,100689.93
2018-12-20T11:17:41.762Z,100692.48
2018-12-20T11:20:08.042Z,100691.66
2018-12-20T11:22:34.514Z,100693.12
2018-12-20T11:25:00.680Z,100691.28
2018-12-20T11:27:26.951Z,100698.48
2018-12-20T11:29:53.149Z,100699.55
2018-12-20T11:32:19.628Z,100703.61
2018-12-20T11:34:45.791Z,100698.23
2018-12-20T11:37:11.969Z,100691.83
2018-12-20T11:39:38.164Z,100693.02
2018-12-20T11:42:04.306Z,100685.66
2018-12-20T11:44:30.453Z,100682.52
2018-12-20T11:46:56.622Z,100688.38
2018-12-20T11:49:22.790Z,100691.20
2018-12-20T11:51:48.925Z,100694.02
2018-12-20T11:54:15.094Z,100685.39
2018-12-20T11:56:41.326Z,100695.19
2018-12-20T11:59:07.488Z,100693.88
2018-12-20T12:01:33.693Z,100699.46
2018-12-20T12:03:59.825Z,100700.33
2018-12-20T12:06:25.960Z,100698.35
2018-12-20T12:08:52.126Z,100699.16
2018-12-20T12:11:18.272Z,100702.28
2018-12-20T12:13:44.453Z,100699.48
2018-12-20T12:16:10.809Z,100698.97
2018-12-20T12:18:36.952Z,100694.55
2018-12-20T12:21:03.240Z,100695.83
2018-12-20T12:23:29.506Z,100690.51
2018-12-20T12:25:55.669Z,100691.64
2018-12-20T12:28:21.833Z,100692.55
2018-12-20T12:30:48.041Z,100699.05
2018-12-20T12:33:14.258Z,100701.48
2018-12-20T12:35:40.433Z,100714.23
2018-12-20T12:38:06.629Z,100720.96
2018-12-20T12:40:32.781Z,100734.68
2018-12-20T12:42:58.926Z,100730.59
2018-12-20T12:45:25.104Z,100732.77
2018-12-20T12:48:03.140Z,100728.52
2018-12-20T12:50:25.446Z,100736.95
2018-12-20T12:52:51.605Z,100744.81
2018-12-20T12:55:17.761Z,100744.72
2018-12-20T12:57:43.927Z,100745.92
2018-12-20T13:00:12.294Z,100760.84
2018-12-20T13:02:38.457Z,100759.69
2018-12-20T13:05:05.803Z,100772.34
2018-12-20T13:07:31.972Z,100771.63
2018-12-20T13:09:58.114Z,100772.63
2018-12-20T13:12:24.274Z,100785.11
2018-12-20T13:14:50.418Z,100784.38
2018-12-20T13:17:16.565Z,100779.47
2018-12-20T13:19:42.711Z,100785.50
2018-12-20T13:22:08.862Z,100786.84
2018-12-20T13:24:35.120Z,100784.85
2018-12-20T13:27:01.260Z,100787.59
2018-12-20T13:29:27.397Z,100785.77
2018-12-20T13:31:53.557Z,100785.20
2018-12-20T13:34:19.784Z,100775.39
2018-12-20T13:36:45.925Z,100786.34
2018-12-20T13:39:12.077Z,100790.99
2018-12-20T13:41:38.228Z,100780.30
2018-12-20T13:44:04.381Z,100782.56
2018-12-20T13:46:30.563Z,100776.44
2018-12-20T13:48:56.857Z,100775.25
2018-12-20T13:51:23.018Z,100784.25
2018-12-20T13:53:49.267Z,100782.84
2018-12-20T13:56:15.480Z,100789.23
2018-12-20T13:58:41.681Z,100784.42
2018-12-20T14:01:07.858Z,100785.89
2018-12-20T14:03:34.143Z,100784.25
2018-12-20T14:06:00.319Z,100790.89
2018-12-20T14:08:26.473Z,100784.20
2018-12-20T14:10:52.609Z,100785.07
2018-12-20T14:13:18.847Z,100779.42
2018-12-20T14:15:45.022Z,100774.27
2018-12-20T14:18:11.153Z,100771.57
2018-12-20T14:20:37.312Z,100775.00
2018-12-20T14:23:03.485Z,100779.47
2018-12-20T14:25:29.846Z,100779.72
2018-12-20T14:27:56.042Z,100778.20
2018-12-20T14:30:22.183Z,100785.36
2018-12-20T14:32:48.333Z,100785.36
2018-12-20T14:35:14.514Z,100780.83
2018-12-20T14:37:40.679Z,100783.81
2018-12-20T14:40:07.580Z,100787.48
2018-12-20T14:42:33.783Z,100784.97
2018-12-20T14:44:59.932Z,100774.97
2018-12-20T14:47:26.083Z,100784.57
2018-12-20T14:49:52.252Z,100795.22
2018-12-20T14:52:18.393Z,100797.48
2018-12-20T14:54:44.523Z,100791.46
2018-12-20T14:57:10.713Z,100797.10
2018-12-20T14:59:36.851Z,100799.09
2018-12-20T15:02:03.038Z,100798.70
2018-12-20T15:04:29.217Z,100801.30
2018-12-20T15:06:55.370Z,100797.95
2018-12-20T15:09:21.525Z,100797.34
2018-12-20T15:11:47.720Z,100801.18
2018-12-20T15:14:13.846Z,100798.48
2018-12-20T15:16:40.011Z,100790.89
2018-12-20T15:19:06.201Z,100798.68
2018-12-20T15:21:32.365Z,100794.56
2018-12-20T15:23:58.509Z,100787.08
2018-12-20T15:26:24.746Z,100797.08
2018-12-20T15:28:50.906Z,100791.35
2018-12-20T15:31:17.055Z,100790.43
2018-12-20T15:33:43.248Z,100789.88
2018-12-20T15:36:09.413Z,100785.70
2018-12-20T15:38:35.564Z,100793.43
2018-12-20T15:41:02.140Z,100785.16
2018-12-20T15:43:28.417Z,100784.25
2018-12-20T15:45:54.553Z,100791.22
2018-12-20T15:48:20.741Z,100792.27
2018-12-20T15:50:46.907Z,100792.34
2018-12-20T15:53:13.109Z,100798.40
2018-12-20T15:55:39.309Z,100804.63
2018-12-20T15:58:05.460Z,100807.86
2018-12-20T16:00:31.630Z,100808.14
2018-12-20T16:02:57.804Z,100803.70
2018-12-20T16:05:23.966Z,100799.37
2018-12-20T16:07:50.122Z,100800.94
2018-12-20T16:10:16.357Z,100799.72
2018-12-20T16:12:42.506Z,100802.73
2018-12-20T16:15:08.699Z,100799.64
2018-12-20T16:17:34.908Z,100797.73
2018-12-20T16:20:01.057Z,100801.68
2018-12-20T16:22:27.255Z,100802.06
2018-12-20T16:24:53.434Z,100803.70
2018-12-20T16:27:19.685Z,100804.06
2018-12-20T16:29:45.872Z,100795.76
2018-12-20T16:32:12.068Z,100800.94
2018-12-20T16:34:38.202Z,100793.23
2018-12-20T16:37:04.332Z,100792.29
2018-12-20T16:39:30.510Z,100793.09
2018-12-20T16:41:56.666Z,100801.01
2018-12-20T16:44:22.809Z,100799.69
2018-12-20T16:46:49.037Z,100791.61
2018-12-20T16:49:15.213Z,100787.91
2018-12-20T16:51:41.452Z,100787.53
2018-12-20T16:54:07.713Z,100785.87
2018-12-20T16:56:33.868Z,100788.34
2018-12-20T16:59:00.018Z,100782.13
2018-12-20T17:01:26.205Z,100785.38
2018-12-20T17:03:52.401Z,100789.26
2018-12-20T17:06:18.581Z,100793.28
2018-12-20T17:08:48.388Z,100785.13
2018-12-20T17:11:12.982Z,100789.27
2018-12-20T17:13:39.141Z,100792.39
2018-12-20T17:16:05.336Z,100790.59
2018-12-20T17:18:31.486Z,100802.58
2018-12-20T17:20:57.642Z,100799.25
2018-12-20T17:23:23.844Z,100797.00
2018-12-20T17:25:49.998Z,100800.34
2018-12-20T17:28:16.202Z,100806.28
2018-12-20T17:30:42.376Z,100812.77
2018-12-20T17:33:08.563Z,100809.91
2018-12-20T17:35:34.737Z,100812.63
2018-12-20T17:38:00.934Z,100811.02
2018-12-20T17:40:28.863Z,100815.19
2018-12-20T17:42:55.229Z,100811.11
2018-12-20T17:45:21.424Z,100819.77
2018-12-20T17:47:47.549Z,100819.70
2018-12-20T17:50:13.725Z,100822.36
2018-12-20T17:52:39.918Z,100822.78
2018-12-20T17:55:06.142Z,100824.88
2018-12-20T17:57:32.307Z,100826.89
2018-12-20T17:59:58.482Z,100824.33
2018-12-20T18:02:24.647Z,100828.97
2018-12-20T18:04:50.806Z,100831.80
2018-12-20T18:07:16.998Z,100825.70
2018-12-20T18:09:43.141Z,100832.95
2018-12-20T18:12:09.297Z,100826.42
2018-12-20T18:14:35.801Z,100840.32
2018-12-20T18:17:01.987Z,100839.20
2018-12-20T18:19:28.139Z,100827.08
2018-12-20T18:21:54.339Z,100832.05
2018-12-20T18:24:20.501Z,100829.13
2018-12-20T18:26:46.664Z,100828.87
2018-12-20T18:29:12.911Z,100830.83
2018-12-20T18:31:39.081Z,100836.73
2018-12-20T18:34:05.229Z,100839.95
2018-12-20T18:36:31.437Z,100836.66
2018-12-20T18:38:57.603Z,100840.12
2018-12-20T18:41:23.760Z,100839.45
2018-12-20T18:43:49.946Z,100841.48
2018-12-20T18:46:16.096Z,100840.33
2018-12-20T18:48:42.298Z,100828.97
2018-12-20T18:51:08.481Z,100829.52
2018-12-20T18:53:34.637Z,100831.71
2018-12-20T18:56:00.791Z,100829.36
2018-12-20T18:58:26.986Z,100833.23
2018-12-20T19:00:53.134Z,100826.98
2018-12-20T19:03:19.309Z,100831.90
2018-12-20T19:05:45.496Z,100823.89
2018-12-20T19:08:11.659Z,100836.77
2018-12-20T19:10:37.810Z,100839.11
2018-12-20T19:13:04.065Z,100847.23
2018-12-20T19:15:30.213Z,100847.63
2018-12-20T19:17:56.369Z,100849.22
2018-12-20T19:20:22.634Z,100842.99
2018-12-20T19:22:48.811Z,100851.29
2018-12-20T19:25:14.985Z,100850.39
2018-12-20T19:27:41.193Z,100851.81
2018-12-20T19:30:07.979Z,100843.64
2018-12-20T19:32:34.273Z,100833.72
2018-12-20T19:35:00.492Z,100844.91
2018-12-20T19:37:26.649Z,100851.77
2018-12-20T19:39:54.857Z,100851.16
2018-12-20T19:42:21.034Z,100855.61
2018-12-20T19:44:47.182Z,100856.97
2018-12-20T19:47:13.332Z,100854.09
2018-12-20T19:49:39.506Z,100854.47
2018-12-20T19:52:05.681Z,100854.53
2018-12-20T19:54:31.844Z,100850.41
2018-12-20T19:56:58.033Z,100838.86
2018-12-20T19:59:24.209Z,100832.25
2018-12-20T20:01:50.404Z,100831.73
2018-12-20T20:04:16.721Z,100823.06
2018-12-20T20:06:42.860Z,100830.69
2018-12-20T20:09:08.997Z,100840.09
2018-12-20T20:11:35.169Z,100852.30
2018-12-20T20:14:01.343Z,100851.53
2018-12-20T20:16:27.493Z,100855.80
2018-12-20T20:18:53.667Z,100849.05
2018-12-20T20:21:19.829Z,100849.27
2018-12-20T20:23:45.997Z,100841.31
2018-12-20T20:26:12.181Z,100835.19
2018-12-20T20:28:38.341Z,100834.45
2018-12-20T20:31:04.558Z,100837.48
2018-12-20T20:33:30.745Z,100841.75
2018-12-20T20:35:56.919Z,100840.34
2018-12-20T20:38:23.069Z,100845.14
2018-12-20T20:40:49.254Z,100838.03
2018-12-20T20:43:15.412Z,100840.67
2018-12-20T20:45:41.551Z,100834.55
2018-12-20T20:48:07.736Z,100846.59
2018-12-20T20:50:33.877Z,100850.06
2018-12-20T20:53:00.033Z,100852.22
2018-12-20T20:55:26.206Z,100851.08
2018-12-20T20:57:52.361Z,100854.43
2018-12-20T21:00:18.496Z,100848.86
2018-12-20T21:02:44.677Z,100858.19
2018-12-20T21:05:10.849Z,100866.52
2018-12-20T21:07:37.006Z,100864.80
2018-12-20T21:10:05.857Z,100861.28
2018-12-20T21:12:32.009Z,100850.84
2018-12-20T21:14:58.172Z,100836.89
2018-12-20T21:17:24.341Z,100833.55
2018-12-20T21:19:50.499Z,100841.43
2018-12-20T21:22:16.648Z,100835.73
2018-12-20T21:24:42.822Z,100837.45
2018-12-20T21:27:08.985Z,100835.89
2018-12-20T21:29:35.128Z,100836.20
2018-12-20T21:32:01.394Z,100830.88
2018-12-20T21:34:27.549Z,100817.45
2018-12-20T21:36:53.702Z,100821.08
2018-12-20T21:39:20.105Z,100830.81
2018-12-20T21:41:46.282Z,100824.56
2018-12-20T21:44:12.441Z,100820.42
2018-12-20T21:46:38.635Z,100827.75
2018-12-20T21:49:04.778Z,100824.88
2018-12-20T21:51:31.057Z,100829.81
2018-12-20T21:53:57.265Z,100829.97
2018-12-20T21:56:23.413Z,100840.83
2018-12-20T21:58:49.585Z,100835.30
2018-12-20T22:01:15.931Z,100827.06
2018-12-20T22:03:42.075Z,100824.52
2018-12-20T22:06:08.213Z,100831.86
2018-12-20T22:08:34.376Z,100827.00
2018-12-20T22:11:00.534Z,100828.55
2018-12-20T22:13:26.693Z,100824.77
2018-12-20T22:15:52.892Z,100825.80
2018-12-20T22:18:19.061Z,100820.10
2018-12-20T22:20:47.373Z,100821.23
2018-12-20T22:23:13.407Z,100820.64
2018-12-20T22:25:39.567Z,100819.45
2018-12-20T22:28:05.729Z,100816.94
2018-12-20T22:30:31.913Z,100813.13
2018-12-20T22:32:58.089Z,100818.34
2018-12-20T22:35:24.246Z,100818.31
2018-12-20T22:37:50.420Z,100809.95
2018-12-20T22:40:16.597Z,100809.87
2018-12-20T22:42:42.745Z,100803.16
2018-12-20T22:45:08.950Z,100804.72
2018-12-20T22:47:35.114Z,100802.41
2018-12-20T22:50:01.289Z,100802.58
2018-12-20T22:52:27.461Z,100800.08
2018-12-20T22:54:53.614Z,100804.33
2018-12-20T22:57:19.765Z,100798.98
2018-12-20T22:59:45.935Z,100805.02
2018-12-20T23:02:18.001Z,100808.36
2018-12-20T23:04:40.270Z,100799.88
2018-12-20T23:07:06.592Z,100795.00
2018-12-20T23:09:32.717Z,100792.54
2018-12-20T23:11:58.865Z,100792.19
2018-12-20T23:14:25.052Z,100789.30
2018-12-20T23:16:53.874Z,100798.01
2018-12-20T23:19:19.401Z,100794.03
2018-12-20T23:21:45.597Z,100796.84
2018-12-20T23:24:11.757Z,100803.70
2018-12-20T23:26:37.937Z,100800.46
2018-12-20T23:29:04.122Z,100794.05
2018-12-20T23:31:30.262Z,100787.05
2018-12-20T23:33:56.422Z,100791.59
2018-12-20T23:36:22.630Z,100778.34
2018-12-20T23:38:48.787Z,100774.84
2018-12-20T23:41:14.954Z,100785.61
2018-12-20T23:43:41.134Z,100786.67
2018-12-20T23:46:07.294Z,100782.66
2018-12-20T23:48:33.458Z,100788.23
2018-12-20T23:50:59.639Z,100784.14
2018-12-20T23:53:25.788Z,100783.96
2018-12-20T23:55:51.930Z,100779.69
2018-12-20T23:58:18.109Z,100788.05
